Airfield :
LOGIN :

Register | Disclaimer

   EN    FR    IT 

 










Legend :    VFR   Marginal VFR   IFR   Intensive IFR   Very Intensive IFR
Visi :
Ceiling :
>= 8 km
>= 3000ft
5 to 8 km
1000 to 3000 ft
1500m to 5 km
500 to 1000 ft
800 to 1500m
200 to 500 ft
< 800m
< 200 ft
Symbols :   Thunderstorms  Fog  Heavy snow  Heavy precipitations  Wind > 20 kt
SIGMETs :     Misc.  Thunderstorms  Icing  Turbulence  Mountain Waves  Volcanic Ashes







- Airport Elevation : 294 ft
- IATA code : NAP


LIRN - Naples Capodichino

CURRENT METAR :
  • 270750Z VRB02KT 8000 -RA SCT020 OVC040 18/16 Q1006 NOSIG

EXPIRED METARs :
  • 270720Z 07004KT 9999 -RA SCT020 OVC040 17/15 Q1006 TEMPO TSRA
  • 270650Z VRB03KT 5000 R06/1400U R24/P1500U -RA SCT025 OVC040 17/15 Q1005 NOSIG
  • 270620Z 09004KT 060V120 9999 -RA SCT025 BKN040 17/14 Q1005 NOSIG
  • 270550Z VRB02KT 9999 -RA BKN035 17/14 Q1005 NOSIG
  • 270520Z VRB02KT 9999 -RA BKN035 17/14 Q1005 NOSIG
  • 270450Z 05003KT 020V080 9999 BKN040 17/13 Q1005 NOSIG

TAF TAF LIRN
Valid from the 27 at 06:00 until the 28 at 06:00 UTC


270500Z 2706/2806 04007KT 8000 SCT030 BKN060
TEMPO 2706/2724 4000 TSRA
No reported NOTAMs for that airfield.
1 SIGMET reported for the Roma FIR (LIRR) :
 
Severe turbulence
LIRR SIGMET 3 VALID 270430/270830 LIIB
LIRR ROMA FIR SEV TURB FCST WI N4016 E00852 - N4124 E01154 - N3947 E01332 - N3633 E01338 - N3627 E01128 - N3730 E01125 - N3834 E00852 - N4016 E00852 FL240/360 STNR NC=



MET'MAP, your aeronautical weather chart ! - Copyright ORBIFLY December 2007 - Disclaimer

ORBIFLY MET'MAP TEAM :

Programming & Development : Alexandra Zaïnal
Concept & Development : Baudouin d'Aumeries
Co-Development & Prog : Marc-Olivier Méhu
Technical & hardware support : Manuel Goepfert

Contact : metmap@orbifly.com




SOURCES & CREDITS :

   NOAA